Time;durP1;ratioP1;P1;durP2;ratioP2;P2;SDS_P1;SDS_P2;PMS_P1;PMS_P2;Temp;Humidity;BMP_temperature;BMP_pressure;BME280_temperature;BME280_humidity;BME280_pressure;Samples;Min_cycle;Max_cycle;Signal;HPM_P1;HPM_P2
2021/08/11 00:01:52;;;;;;;;;;;16.50;99.90;;;;;;4946571;28;19965;-88
2021/08/11 00:04:17;;;;;;;;;;;16.50;99.90;;;;;;4946713;28;19973;-88
2021/08/11 00:06:43;;;;;;;;;;;16.50;99.90;;;;;;4946617;28;20286;-88
2021/08/11 00:09:08;;;;;;;;;;;16.50;99.90;;;;;;4946084;29;20475;-88
2021/08/11 00:11:34;;;;;;;;;;;16.50;99.90;;;;;;4946465;28;19917;-88
2021/08/11 00:13:59;;;;;;;;;;;16.50;99.90;;;;;;4946769;28;19965;-88
2021/08/11 00:16:25;;;;;;;;;;;16.50;99.90;;;;;;4935115;28;19911;-88
2021/08/11 00:18:51;;;;;;;;;;;16.40;99.90;;;;;;4933206;28;20017;-88
2021/08/11 00:21:16;;;;;;;;;;;16.40;99.90;;;;;;4933382;29;20378;-88
2021/08/11 00:23:42;;;;;;;;;;;16.40;99.90;;;;;;4933715;29;19915;-88
2021/08/11 00:26:07;;;;;;;;;;;16.40;99.90;;;;;;4933560;28;19921;-88
2021/08/11 00:28:33;;;;;;;;;;;16.40;99.90;;;;;;4934806;29;19911;-88
2021/08/11 00:30:58;;;;;;;;;;;16.40;99.90;;;;;;4934284;28;20331;-88
2021/08/11 00:33:24;;;;;;;;;;;16.40;99.90;;;;;;4933402;29;19911;-88
2021/08/11 00:35:49;;;;;;;;;;;16.30;99.90;;;;;;4933617;29;20013;-88
2021/08/11 00:38:15;;;;;;;;;;;16.30;99.90;;;;;;4933273;29;19911;-88
2021/08/11 00:40:40;;;;;;;;;;;16.30;99.90;;;;;;4933000;29;19917;-88
2021/08/11 00:43:07;;;;;;;;;;;16.30;99.90;;;;;;4934544;28;19919;-88
2021/08/11 00:45:33;;;;;;;;;;;16.30;99.90;;;;;;4934565;28;20287;-88
2021/08/11 00:47:58;;;;;;;;;;;16.30;99.90;;;;;;4933202;29;20364;-88
2021/08/11 00:50:24;;;;;;;;;;;16.30;99.90;;;;;;4932661;29;19911;-88
2021/08/11 00:52:49;;;;;;;;;;;16.30;99.90;;;;;;4933169;28;19911;-88
2021/08/11 00:55:15;;;;;;;;;;;16.20;99.90;;;;;;4933033;29;19986;-88
2021/08/11 00:57:42;;;;;;;;;;;16.20;99.90;;;;;;4933115;29;19917;-88
2021/08/11 01:00:07;;;;;;;;;;;16.20;99.90;;;;;;4932552;29;20303;-88
2021/08/11 01:02:33;;;;;;;;;;;16.20;99.90;;;;;;4933154;28;19937;-88
2021/08/11 01:05:00;;;;;;;;;;;16.20;99.90;;;;;;4933015;29;19915;-88
2021/08/11 01:07:27;;;;;;;;;;;16.20;99.90;;;;;;4932976;28;19918;-88
2021/08/11 01:09:53;;;;;;;;;;;16.20;99.90;;;;;;4932371;29;20526;-88
2021/08/11 01:12:21;;;;;;;;;;;16.20;99.90;;;;;;4932836;29;19915;-88
2021/08/11 01:14:46;;;;;;;;;;;16.20;99.90;;;;;;4932883;29;19910;-88
2021/08/11 01:17:12;;;;;;;;;;;16.20;99.90;;;;;;4932854;29;20006;-88
2021/08/11 01:19:37;;;;;;;;;;;16.20;99.90;;;;;;4933425;28;19926;-88
2021/08/11 01:22:07;;;;;;;;;;;16.10;99.90;;;;;;4932805;29;20347;-88
2021/08/11 01:24:44;;;;;;;;;;;16.10;99.90;;;;;;4933896;28;20497;-88
2021/08/11 01:27:29;;;;;;;;;;;16.10;99.90;;;;;;4931642;28;20260;-88
2021/08/11 01:30:13;;;;;;;;;;;16.10;99.90;;;;;;4932232;28;19966;-87
2021/08/11 01:32:47;;;;;;;;;;;16.10;99.90;;;;;;4932663;28;19934;-88
2021/08/11 01:35:15;;;;;;;;;;;16.10;99.90;;;;;;4933864;28;19914;-88
2021/08/11 01:37:41;;;;;;;;;;;16.10;99.90;;;;;;4933766;28;19942;-89
2021/08/11 01:40:09;;;;;;;;;;;16.10;99.90;;;;;;4932152;29;20355;-88
2021/08/11 01:42:42;;;;;;;;;;;16.10;99.90;;;;;;4932302;29;20003;-88
2021/08/11 01:45:13;;;;;;;;;;;16.10;99.90;;;;;;4933500;28;20447;-88
2021/08/11 01:47:45;;;;;;;;;;;16.10;99.90;;;;;;4932386;28;19921;-88
2021/08/11 01:50:12;;;;;;;;;;;16.10;99.90;;;;;;4933307;28;19934;-88
2021/08/11 01:52:42;;;;;;;;;;;16.10;99.90;;;;;;4932243;29;19911;-88
2021/08/11 01:55:09;;;;;;;;;;;16.10;99.90;;;;;;4932284;29;19960;-88
2021/08/11 01:57:37;;;;;;;;;;;16.10;99.90;;;;;;4933493;28;19911;-88
2021/08/11 02:00:03;;;;;;;;;;;16.10;99.90;;;;;;4931693;29;19917;-88
2021/08/11 02:02:28;;;;;;;;;;;16.10;99.90;;;;;;4931988;29;19911;-88
2021/08/11 02:04:54;;;;;;;;;;;16.10;99.90;;;;;;4933408;28;19915;-88
2021/08/11 02:07:19;;;;;;;;;;;16.10;99.90;;;;;;4932098;28;19910;-88
2021/08/11 02:09:45;;;;;;;;;;;16.10;99.90;;;;;;4931551;28;19911;-88
2021/08/11 02:12:11;;;;;;;;;;;16.10;99.90;;;;;;4932159;29;19918;-88
2021/08/11 02:14:38;;;;;;;;;;;16.10;99.90;;;;;;4931904;29;20383;-88
2021/08/11 02:17:04;;;;;;;;;;;16.10;99.90;;;;;;4931927;29;19921;-88
2021/08/11 02:19:29;;;;;;;;;;;16.10;99.90;;;;;;4931369;28;20371;-88
2021/08/11 02:21:55;;;;;;;;;;;16.10;99.90;;;;;;4933087;28;19911;-88
2021/08/11 02:24:20;;;;;;;;;;;16.00;99.90;;;;;;4931810;29;19945;-87
2021/08/11 02:26:50;;;;;;;;;;;16.00;99.90;;;;;;4933028;29;20002;-88
2021/08/11 02:29:25;;;;;;;;;;;16.00;99.90;;;;;;4930990;29;19957;-88
2021/08/11 02:32:11;;;;;;;;;;;16.00;99.90;;;;;;4931751;28;19911;-88
2021/08/11 02:34:42;;;;;;;;;;;16.00;99.90;;;;;;4930164;28;19950;-88
2021/08/11 02:37:13;;;;;;;;;;;16.00;99.90;;;;;;4931333;29;20314;-88
2021/08/11 02:39:42;;;;;;;;;;;15.90;99.90;;;;;;4930845;29;19911;-88
2021/08/11 02:42:11;;;;;;;;;;;15.90;99.90;;;;;;4931560;29;19918;-87
2021/08/11 02:44:39;;;;;;;;;;;15.90;99.90;;;;;;4931545;28;19992;-88
2021/08/11 02:47:04;;;;;;;;;;;15.90;99.90;;;;;;4931347;28;19958;-88
2021/08/11 02:49:32;;;;;;;;;;;15.90;99.90;;;;;;4931071;29;19961;-88
2021/08/11 02:51:58;;;;;;;;;;;15.90;99.90;;;;;;4931425;28;20398;-87
2021/08/11 02:54:24;;;;;;;;;;;15.90;99.90;;;;;;4931617;29;20090;-88
2021/08/11 02:56:50;;;;;;;;;;;15.90;99.90;;;;;;4932554;28;19911;-88
2021/08/11 02:59:15;;;;;;;;;;;15.90;99.90;;;;;;4932168;28;19965;-88
2021/08/11 03:01:42;;;;;;;;;;;15.80;99.90;;;;;;4931525;29;19911;-88
2021/08/11 03:04:07;;;;;;;;;;;15.80;99.90;;;;;;4931382;29;19962;-88
2021/08/11 03:06:34;;;;;;;;;;;15.80;99.90;;;;;;4931379;29;19981;-88
2021/08/11 03:09:00;;;;;;;;;;;15.80;99.90;;;;;;4930678;29;19915;-88
2021/08/11 03:11:26;;;;;;;;;;;15.90;99.90;;;;;;4931169;29;19911;-88
2021/08/11 03:13:52;;;;;;;;;;;15.90;99.90;;;;;;4931355;29;19998;-88
2021/08/11 03:16:18;;;;;;;;;;;15.80;99.90;;;;;;4931222;29;20004;-88
2021/08/11 03:18:43;;;;;;;;;;;15.80;99.90;;;;;;4931049;28;19942;-88
2021/08/11 03:21:09;;;;;;;;;;;15.80;99.90;;;;;;4930616;29;19958;-88
2021/08/11 03:23:34;;;;;;;;;;;15.80;99.90;;;;;;4931097;29;19915;-87
2021/08/11 03:26:00;;;;;;;;;;;15.70;99.90;;;;;;4931175;28;19918;-88
2021/08/11 03:28:25;;;;;;;;;;;15.80;99.90;;;;;;4931135;29;20373;-88
2021/08/11 03:30:51;;;;;;;;;;;15.70;99.90;;;;;;4930542;28;19950;-88
2021/08/11 03:33:16;;;;;;;;;;;15.70;99.90;;;;;;4930819;29;19915;-88
2021/08/11 03:35:42;;;;;;;;;;;15.70;99.90;;;;;;4932211;28;19911;-88
2021/08/11 03:38:08;;;;;;;;;;;15.80;99.90;;;;;;4930932;28;19915;-88
2021/08/11 03:40:34;;;;;;;;;;;15.80;99.90;;;;;;4930421;29;20486;-88
2021/08/11 03:42:59;;;;;;;;;;;15.70;99.90;;;;;;4930849;29;19911;-88
2021/08/11 03:45:25;;;;;;;;;;;15.70;99.90;;;;;;4931056;29;19911;-88
2021/08/11 03:47:50;;;;;;;;;;;15.80;99.90;;;;;;4930906;28;19958;-86
2021/08/11 03:50:17;;;;;;;;;;;15.80;99.90;;;;;;4931158;29;19911;-88
2021/08/11 03:52:42;;;;;;;;;;;15.70;99.90;;;;;;4933989;29;19915;-88
2021/08/11 03:55:08;;;;;;;;;;;15.70;99.90;;;;;;4934076;29;20406;-88
2021/08/11 03:57:34;;;;;;;;;;;15.70;99.90;;;;;;4935169;28;19955;-89
2021/08/11 04:00:00;;;;;;;;;;;15.70;99.90;;;;;;4933618;29;19937;-88
2021/08/11 04:02:25;;;;;;;;;;;15.60;99.90;;;;;;4933927;29;20279;-88
2021/08/11 04:04:51;;;;;;;;;;;15.70;99.90;;;;;;4933915;29;19915;-88
2021/08/11 04:07:16;;;;;;;;;;;15.60;99.90;;;;;;4933901;29;20283;-88
2021/08/11 04:09:42;;;;;;;;;;;15.60;99.90;;;;;;4933546;28;19918;-88
2021/08/11 04:12:07;;;;;;;;;;;15.70;99.90;;;;;;4933716;29;19911;-88
2021/08/11 04:14:33;;;;;;;;;;;15.60;99.90;;;;;;4935158;28;19918;-88
2021/08/11 04:16:58;;;;;;;;;;;15.60;99.90;;;;;;4933838;29;20006;-88
2021/08/11 04:19:24;;;;;;;;;;;15.60;99.90;;;;;;4933076;28;19942;-88
2021/08/11 04:21:49;;;;;;;;;;;15.60;99.90;;;;;;4933458;28;20291;-88
2021/08/11 04:24:15;;;;;;;;;;;15.60;99.90;;;;;;4933717;29;20458;-88
2021/08/11 04:26:41;;;;;;;;;;;15.60;99.90;;;;;;4933580;29;19957;-88
2021/08/11 04:29:06;;;;;;;;;;;15.60;99.90;;;;;;4933093;29;19915;-88
2021/08/11 04:31:32;;;;;;;;;;;15.60;99.90;;;;;;4933588;29;19915;-88
2021/08/11 04:33:57;;;;;;;;;;;15.70;99.90;;;;;;4934874;28;20001;-88
2021/08/11 04:36:22;;;;;;;;;;;15.70;99.90;;;;;;4934324;29;19976;-88
2021/08/11 04:38:48;;;;;;;;;;;15.70;99.90;;;;;;4935122;29;19917;-88
2021/08/11 04:41:13;;;;;;;;;;;15.70;99.90;;;;;;4935723;29;19911;-88
2021/08/11 04:43:39;;;;;;;;;;;15.70;99.90;;;;;;4934443;29;19915;-88
2021/08/11 04:46:05;;;;;;;;;;;15.80;99.90;;;;;;4933594;29;20034;-88
2021/08/11 04:48:31;;;;;;;;;;;15.80;99.90;;;;;;4933340;28;19911;-88
2021/08/11 04:50:57;;;;;;;;;;;15.80;99.90;;;;;;4933340;29;20430;-88
2021/08/11 04:53:22;;;;;;;;;;;15.80;99.90;;;;;;4934146;29;19915;-88
2021/08/11 04:55:49;;;;;;;;;;;15.80;99.90;;;;;;4934298;29;20363;-88
2021/08/11 04:58:14;;;;;;;;;;;15.80;99.90;;;;;;4934324;28;19918;-88
2021/08/11 05:00:40;;;;;;;;;;;15.90;99.90;;;;;;4933705;29;20279;-88
2021/08/11 05:03:05;;;;;;;;;;;15.90;99.90;;;;;;4933396;29;19915;-88
2021/08/11 05:05:31;;;;;;;;;;;16.00;99.90;;;;;;4933086;29;19954;-88
2021/08/11 05:07:56;;;;;;;;;;;16.00;99.90;;;;;;4933011;29;19958;-88
2021/08/11 05:10:22;;;;;;;;;;;16.00;99.90;;;;;;4932393;29;19911;-87
2021/08/11 05:12:47;;;;;;;;;;;16.00;99.90;;;;;;4932989;29;19918;-88
2021/08/11 05:15:13;;;;;;;;;;;16.00;99.90;;;;;;4932985;29;19915;-88
2021/08/11 05:17:40;;;;;;;;;;;16.10;99.90;;;;;;4934688;28;19918;-89
2021/08/11 05:20:06;;;;;;;;;;;16.20;99.90;;;;;;4932076;29;20009;-89
2021/08/11 05:22:32;;;;;;;;;;;16.20;99.90;;;;;;4932768;28;19910;-88
2021/08/11 05:24:57;;;;;;;;;;;16.30;99.90;;;;;;4933052;28;20371;-88
2021/08/11 05:27:24;;;;;;;;;;;16.30;99.90;;;;;;4932930;28;19922;-88
2021/08/11 05:29:50;;;;;;;;;;;16.30;99.90;;;;;;4932111;29;19953;-88
2021/08/11 05:32:16;;;;;;;;;;;16.40;99.90;;;;;;4932516;29;19946;-89
2021/08/11 05:34:42;;;;;;;;;;;16.40;99.90;;;;;;4933828;29;19917;-88
2021/08/11 05:37:07;;;;;;;;;;;16.40;99.90;;;;;;4933785;28;20432;-88
2021/08/11 05:39:33;;;;;;;;;;;16.50;99.90;;;;;;4931820;29;19972;-89
2021/08/11 05:41:59;;;;;;;;;;;16.50;99.90;;;;;;4933697;29;19911;-88
2021/08/11 05:44:24;;;;;;;;;;;16.50;99.90;;;;;;4932365;28;19941;-89
2021/08/11 05:46:50;;;;;;;;;;;16.50;99.90;;;;;;4932527;29;19911;-88
2021/08/11 05:49:15;;;;;;;;;;;16.50;99.90;;;;;;4932964;28;19911;-89
2021/08/11 05:51:41;;;;;;;;;;;16.50;99.90;;;;;;4933530;28;19957;-89
2021/08/11 05:54:06;;;;;;;;;;;16.50;99.90;;;;;;4932220;29;19910;-89
2021/08/11 05:56:32;;;;;;;;;;;16.50;99.90;;;;;;4932319;29;20078;-89
2021/08/11 05:58:58;;;;;;;;;;;16.50;99.90;;;;;;4932888;28;19911;-88
2021/08/11 06:01:24;;;;;;;;;;;16.50;99.90;;;;;;4932103;29;19914;-88
2021/08/11 06:04:02;;;;;;;;;;;16.50;99.90;;;;;;4932383;29;19965;-89
2021/08/11 06:06:28;;;;;;;;;;;16.50;99.90;;;;;;4932242;29;19986;-88
2021/08/11 06:08:54;;;;;;;;;;;16.50;99.90;;;;;;4932728;28;19919;-89
2021/08/11 06:11:19;;;;;;;;;;;16.50;99.90;;;;;;4932019;29;19910;-89
2021/08/11 06:13:45;;;;;;;;;;;16.50;99.90;;;;;;4931532;29;19918;-89
2021/08/11 06:16:10;;;;;;;;;;;16.50;99.90;;;;;;4931942;29;20287;-89
2021/08/11 06:18:36;;;;;;;;;;;16.50;99.90;;;;;;4931881;28;19946;-88
2021/08/11 06:21:02;;;;;;;;;;;16.50;99.90;;;;;;4932701;28;19957;-89
2021/08/11 06:23:27;;;;;;;;;;;16.50;99.90;;;;;;4931708;29;19918;-88
2021/08/11 06:25:53;;;;;;;;;;;16.60;99.90;;;;;;4931841;29;19914;-89
2021/08/11 06:28:18;;;;;;;;;;;16.60;99.90;;;;;;4932896;28;20371;-88
2021/08/11 06:30:44;;;;;;;;;;;16.60;99.90;;;;;;4931101;29;19918;-90
2021/08/11 06:33:09;;;;;;;;;;;16.60;99.90;;;;;;4931623;29;19911;-88
2021/08/11 06:35:35;;;;;;;;;;;16.60;99.90;;;;;;4931725;29;19911;-90
2021/08/11 06:38:00;;;;;;;;;;;16.70;99.90;;;;;;4931631;29;19964;-89
2021/08/11 06:40:27;;;;;;;;;;;16.70;99.90;;;;;;4931127;29;19911;-89
2021/08/11 06:42:53;;;;;;;;;;;16.80;99.90;;;;;;4931581;29;19958;-90
2021/08/11 06:48:54;;;;;;;;;;;16.80;99.90;;;;;;4932890;28;19945;-89
2021/08/11 06:55:18;;;;;;;;;;;17.00;99.90;;;;;;4991064;28;19975;-89
2021/08/11 07:23:43;;;;;;;;;;;17.30;99.90;;;;;;4990425;28;20011;-89
2021/08/11 07:26:09;;;;;;;;;;;17.30;99.90;;;;;;4992545;28;19958;-89
2021/08/11 07:28:35;;;;;;;;;;;17.40;99.90;;;;;;4952202;28;20362;-89
2021/08/11 07:59:07;;;;;;;;;;;17.60;99.90;;;;;;4895604;29;19958;-88
2021/08/11 08:26:19;;;;;;;;;;;17.90;99.90;;;;;;4935093;29;19926;-88
2021/08/11 08:32:32;;;;;;;;;;;18.00;99.90;;;;;;4993455;28;19960;-88
2021/08/11 08:41:22;;;;;;;;;;;18.20;99.90;;;;;;4938431;28;19961;-88
2021/08/11 08:43:47;;;;;;;;;;;18.30;99.90;;;;;;4934648;28;19954;-88
2021/08/11 08:46:15;;;;;;;;;;;18.30;99.90;;;;;;4934033;29;19914;-89
2021/08/11 08:48:41;;;;;;;;;;;18.30;99.90;;;;;;4934718;28;19950;-88
2021/08/11 08:51:11;;;;;;;;;;;18.40;99.90;;;;;;4932943;29;19914;-88
2021/08/11 08:53:36;;;;;;;;;;;18.30;99.90;;;;;;4934066;28;19918;-88
2021/08/11 08:56:03;;;;;;;;;;;18.40;99.90;;;;;;4933139;29;19911;-88
2021/08/11 08:58:28;;;;;;;;;;;18.40;99.90;;;;;;4933181;29;19911;-88
2021/08/11 09:00:54;;;;;;;;;;;18.40;99.90;;;;;;4933950;28;19922;-88
2021/08/11 09:03:19;;;;;;;;;;;18.50;99.90;;;;;;4933055;29;19911;-88
2021/08/11 09:05:46;;;;;;;;;;;18.50;99.90;;;;;;4934310;28;19911;-88
2021/08/11 09:08:11;;;;;;;;;;;18.50;99.90;;;;;;4933029;28;19911;-88
2021/08/11 09:10:39;;;;;;;;;;;18.60;99.90;;;;;;4933951;29;20269;-88
2021/08/11 09:13:11;;;;;;;;;;;18.60;99.90;;;;;;4932959;29;19915;-88
2021/08/11 09:15:44;;;;;;;;;;;18.60;99.90;;;;;;4934256;28;20005;-88
2021/08/11 09:18:11;;;;;;;;;;;18.60;99.90;;;;;;4934001;28;20283;-88
2021/08/11 09:20:37;;;;;;;;;;;18.70;99.90;;;;;;4933771;29;20283;-89
2021/08/11 09:23:02;;;;;;;;;;;18.70;99.90;;;;;;4933087;29;19911;-88
2021/08/11 09:25:28;;;;;;;;;;;18.70;99.90;;;;;;4934105;28;19922;-88
2021/08/11 09:27:53;;;;;;;;;;;18.80;99.90;;;;;;4932625;29;20354;-88
2021/08/11 09:30:20;;;;;;;;;;;18.90;99.90;;;;;;4932286;28;19915;-88
2021/08/11 09:33:04;;;;;;;;;;;18.90;99.90;;;;;;4933908;28;19937;-89
2021/08/11 09:35:30;;;;;;;;;;;19.00;99.90;;;;;;4932779;28;19915;-88
2021/08/11 09:37:57;;;;;;;;;;;19.10;99.90;;;;;;4933803;28;20307;-88
2021/08/11 09:40:26;;;;;;;;;;;19.20;99.90;;;;;;4932054;29;20303;-88
2021/08/11 09:42:54;;;;;;;;;;;19.20;99.90;;;;;;4933838;29;19919;-89
2021/08/11 09:45:19;;;;;;;;;;;19.30;99.90;;;;;;4932634;29;19911;-88
2021/08/11 09:47:53;;;;;;;;;;;19.40;99.90;;;;;;4932727;28;20283;-88
2021/08/11 09:50:30;;;;;;;;;;;19.40;99.90;;;;;;4932116;29;19918;-89
2021/08/11 09:52:56;;;;;;;;;;;19.40;99.90;;;;;;4932498;29;20279;-89
2021/08/11 09:55:21;;;;;;;;;;;19.40;99.90;;;;;;4932280;29;19915;-88
2021/08/11 09:57:47;;;;;;;;;;;19.40;99.90;;;;;;4933462;28;19917;-88
2021/08/11 10:00:13;;;;;;;;;;;19.40;99.90;;;;;;4933266;28;19915;-88
2021/08/11 10:02:40;;;;;;;;;;;19.40;99.90;;;;;;4932085;29;19997;-89
2021/08/11 10:05:06;;;;;;;;;;;19.40;99.90;;;;;;4933577;28;20286;-88
2021/08/11 10:07:31;;;;;;;;;;;19.40;99.90;;;;;;4932096;28;19998;-88
2021/08/11 10:10:01;;;;;;;;;;;19.40;99.90;;;;;;4933045;29;20005;-89
2021/08/11 10:12:28;;;;;;;;;;;19.40;99.90;;;;;;4933482;29;20018;-88
2021/08/11 10:14:55;;;;;;;;;;;19.40;99.90;;;;;;4932089;29;19919;-89
2021/08/11 10:17:20;;;;;;;;;;;19.40;99.90;;;;;;4933293;28;19953;-88
2021/08/11 10:19:48;;;;;;;;;;;19.50;99.90;;;;;;4931643;28;19958;-89
2021/08/11 10:22:20;;;;;;;;;;;19.60;99.90;;;;;;4931817;29;19911;-89
2021/08/11 10:24:46;;;;;;;;;;;19.60;99.90;;;;;;4932316;29;19911;-88
2021/08/11 10:27:14;;;;;;;;;;;19.60;99.90;;;;;;4933364;28;19915;-88
2021/08/11 10:29:40;;;;;;;;;;;19.60;99.90;;;;;;4932740;28;20298;-89
2021/08/11 10:32:09;;;;;;;;;;;19.60;99.90;;;;;;4933125;28;19925;-89
2021/08/11 10:34:34;;;;;;;;;;;19.60;99.90;;;;;;4931750;28;19968;-88
2021/08/11 10:37:00;;;;;;;;;;;19.60;99.90;;;;;;4931877;29;19911;-89
2021/08/11 10:39:27;;;;;;;;;;;19.60;99.90;;;;;;4932714;28;19910;-89
2021/08/11 10:41:52;;;;;;;;;;;19.60;99.90;;;;;;4931770;28;19919;-88
2021/08/11 10:44:22;;;;;;;;;;;19.60;99.90;;;;;;4931633;29;19911;-88
2021/08/11 10:46:56;;;;;;;;;;;19.60;99.90;;;;;;4931450;29;19990;-88
2021/08/11 10:49:24;;;;;;;;;;;19.60;99.90;;;;;;4931167;28;20284;-88
2021/08/11 10:51:50;;;;;;;;;;;19.60;99.90;;;;;;4932859;28;20478;-88
2021/08/11 10:54:16;;;;;;;;;;;19.60;99.90;;;;;;4931553;29;20009;-88
2021/08/11 10:56:44;;;;;;;;;;;19.60;99.90;;;;;;4931576;29;19915;-88
2021/08/11 10:59:22;;;;;;;;;;;19.60;99.90;;;;;;4930836;28;19915;-88
2021/08/11 11:01:48;;;;;;;;;;;19.60;99.90;;;;;;4931376;28;19956;-88
2021/08/11 11:04:33;;;;;;;;;;;19.70;99.90;;;;;;4932726;29;19915;-88
2021/08/11 11:07:08;;;;;;;;;;;19.70;99.90;;;;;;4931285;28;20288;-88
2021/08/11 11:09:34;;;;;;;;;;;19.70;99.90;;;;;;4930943;28;19921;-88
2021/08/11 11:12:19;;;;;;;;;;;19.70;99.90;;;;;;4932556;28;19911;-88
2021/08/11 11:14:46;;;;;;;;;;;19.80;99.90;;;;;;4931270;28;20360;-88
2021/08/11 11:17:12;;;;;;;;;;;19.90;99.90;;;;;;4932484;28;19915;-88
2021/08/11 11:19:56;;;;;;;;;;;19.90;99.90;;;;;;4932506;29;20295;-88
2021/08/11 11:22:35;;;;;;;;;;;20.00;99.90;;;;;;4932403;28;19918;-89
2021/08/11 11:25:01;;;;;;;;;;;20.10;99.90;;;;;;4932308;28;19922;-89
2021/08/11 11:27:35;;;;;;;;;;;20.20;99.90;;;;;;4931064;29;19910;-89
2021/08/11 11:30:01;;;;;;;;;;;20.20;99.90;;;;;;4930560;28;20260;-88
2021/08/11 11:32:26;;;;;;;;;;;20.20;99.90;;;;;;4931024;29;19931;-89
2021/08/11 11:35:15;;;;;;;;;;;20.20;99.90;;;;;;4930879;29;19915;-89
2021/08/11 11:37:41;;;;;;;;;;;20.20;99.90;;;;;;4926769;28;20384;-88
2021/08/11 11:40:07;;;;;;;;;;;20.30;99.90;;;;;;4931800;28;19918;-89
2021/08/11 11:42:33;;;;;;;;;;;20.30;99.90;;;;;;4932042;28;19922;-89
2021/08/11 11:45:04;;;;;;;;;;;20.30;99.90;;;;;;4930775;29;20005;-88
2021/08/11 11:47:37;;;;;;;;;;;20.30;99.90;;;;;;4931993;28;20364;-89
2021/08/11 11:50:18;;;;;;;;;;;20.20;99.90;;;;;;4930456;28;19982;-89
2021/08/11 11:52:50;;;;;;;;;;;20.30;99.90;;;;;;4930827;28;19915;-89
2021/08/11 11:55:25;;;;;;;;;;;20.30;99.80;;;;;;4930684;28;19915;-89
2021/08/11 11:57:52;;;;;;;;;;;20.50;99.20;;;;;;4932022;28;19911;-89
2021/08/11 12:00:18;;;;;;;;;;;20.60;99.00;;;;;;4930485;29;20004;-89
2021/08/11 12:02:43;;;;;;;;;;;20.60;98.80;;;;;;4930755;28;20068;-89
2021/08/11 12:05:09;;;;;;;;;;;20.70;99.00;;;;;;4930902;28;19910;-89
2021/08/11 12:07:35;;;;;;;;;;;20.90;99.00;;;;;;4930550;29;19934;-89
2021/08/11 12:22:40;;;;;;;;;;;21.30;97.30;;;;;;4935076;29;20346;-89
2021/08/11 12:25:19;;;;;;;;;;;21.50;97.20;;;;;;4927855;28;19922;-89
2021/08/11 12:28:04;;;;;;;;;;;21.50;97.20;;;;;;4933760;29;19911;-89
2021/08/11 12:30:29;;;;;;;;;;;21.60;96.50;;;;;;4933862;29;19994;-89
2021/08/11 12:32:56;;;;;;;;;;;21.60;96.00;;;;;;4936615;29;20019;-89
2021/08/11 12:35:22;;;;;;;;;;;21.50;95.70;;;;;;4935070;28;19919;-89
2021/08/11 12:37:47;;;;;;;;;;;21.50;95.80;;;;;;4935107;28;20284;-89
2021/08/11 12:40:26;;;;;;;;;;;21.50;95.70;;;;;;4934645;29;19919;-88
2021/08/11 12:42:55;;;;;;;;;;;21.50;96.00;;;;;;4934598;29;19919;-89
2021/08/11 12:45:21;;;;;;;;;;;21.50;95.90;;;;;;4933295;29;19942;-89
2021/08/11 12:47:46;;;;;;;;;;;21.50;95.90;;;;;;4933343;29;20382;-89
2021/08/11 12:50:19;;;;;;;;;;;21.50;96.50;;;;;;4932848;29;19969;-89
2021/08/11 12:52:54;;;;;;;;;;;21.40;96.60;;;;;;4933515;29;20040;-90
2021/08/11 12:55:31;;;;;;;;;;;21.50;96.10;;;;;;4933299;29;19921;-89
2021/08/11 12:57:56;;;;;;;;;;;21.50;95.40;;;;;;4933213;29;19918;-89
2021/08/11 13:00:40;;;;;;;;;;;21.50;95.10;;;;;;4932975;29;19911;-89
2021/08/11 13:03:12;;;;;;;;;;;21.50;95.20;;;;;;4933167;29;19964;-89
2021/08/11 13:05:48;;;;;;;;;;;21.50;95.10;;;;;;4934944;28;19918;-89
2021/08/11 13:08:14;;;;;;;;;;;21.60;94.70;;;;;;4933435;29;20280;-89
2021/08/11 13:10:51;;;;;;;;;;;21.60;94.20;;;;;;4932965;28;19961;-89
2021/08/11 13:13:21;;;;;;;;;;;21.70;93.50;;;;;;4934415;28;19977;-89
2021/08/11 13:15:47;;;;;;;;;;;21.80;93.60;;;;;;4933056;28;19915;-89
2021/08/11 13:18:22;;;;;;;;;;;21.80;93.90;;;;;;4934229;28;19934;-89
2021/08/11 13:20:48;;;;;;;;;;;21.70;94.20;;;;;;4932652;29;19910;-89
2021/08/11 13:23:13;;;;;;;;;;;21.70;94.50;;;;;;4932793;29;20425;-90
2021/08/11 13:25:42;;;;;;;;;;;21.70;94.10;;;;;;4933096;29;19911;-89
2021/08/11 13:28:08;;;;;;;;;;;21.80;93.10;;;;;;4932537;29;19911;-89
2021/08/11 13:30:34;;;;;;;;;;;21.80;92.90;;;;;;4932873;28;19911;-89
2021/08/11 13:33:00;;;;;;;;;;;21.80;92.80;;;;;;4933747;28;20287;-90
2021/08/11 13:35:31;;;;;;;;;;;21.90;92.60;;;;;;4932613;28;19915;-89
2021/08/11 13:37:56;;;;;;;;;;;22.00;93.30;;;;;;4933784;28;20338;-88
2021/08/11 13:40:22;;;;;;;;;;;22.10;92.90;;;;;;4932385;29;19911;-90
2021/08/11 13:42:47;;;;;;;;;;;22.00;92.70;;;;;;4933576;29;19923;-89
2021/08/11 13:45:13;;;;;;;;;;;22.00;93.10;;;;;;4933894;29;19914;-89
2021/08/11 13:47:39;;;;;;;;;;;22.00;93.20;;;;;;4934117;28;20418;-90
2021/08/11 13:50:06;;;;;;;;;;;22.00;93.00;;;;;;4932568;28;19956;-89
2021/08/11 13:52:31;;;;;;;;;;;22.10;92.80;;;;;;4932748;29;20417;-89
2021/08/11 13:54:57;;;;;;;;;;;22.00;93.20;;;;;;4934316;29;19915;-88
2021/08/11 13:57:23;;;;;;;;;;;22.00;93.00;;;;;;4935449;29;19915;-88
2021/08/11 13:59:48;;;;;;;;;;;22.10;93.00;;;;;;4934000;29;20295;-88
2021/08/11 14:02:14;;;;;;;;;;;22.00;93.00;;;;;;4935464;28;19918;-88
2021/08/11 14:04:39;;;;;;;;;;;22.00;93.20;;;;;;4934146;28;19918;-88
2021/08/11 14:07:05;;;;;;;;;;;22.10;93.20;;;;;;4935055;29;19915;-88
2021/08/11 14:09:31;;;;;;;;;;;22.10;92.70;;;;;;4935400;28;20288;-88
2021/08/11 14:11:57;;;;;;;;;;;22.30;92.90;;;;;;4934138;29;19910;-88
2021/08/11 14:14:23;;;;;;;;;;;22.40;92.90;;;;;;4934451;29;20470;-88
2021/08/11 14:16:48;;;;;;;;;;;22.60;92.50;;;;;;4934519;29;19911;-88
2021/08/11 14:19:14;;;;;;;;;;;22.70;92.00;;;;;;4934830;28;20197;-88
2021/08/11 14:21:39;;;;;;;;;;;22.90;91.70;;;;;;4934983;28;19910;-89
2021/08/11 14:24:05;;;;;;;;;;;23.00;91.30;;;;;;4932924;29;19946;-89
2021/08/11 14:26:31;;;;;;;;;;;23.00;91.10;;;;;;4933944;29;19925;-88
2021/08/11 14:28:56;;;;;;;;;;;23.10;90.90;;;;;;4933091;28;19918;-89
2021/08/11 14:31:23;;;;;;;;;;;23.30;91.20;;;;;;4934070;29;19911;-88
2021/08/11 14:33:50;;;;;;;;;;;23.60;90.70;;;;;;4934613;29;19915;-89
2021/08/11 14:36:15;;;;;;;;;;;23.80;89.60;;;;;;4934301;29;19911;-89
2021/08/11 14:38:41;;;;;;;;;;;24.00;88.30;;;;;;4934385;29;20286;-88
2021/08/11 14:41:06;;;;;;;;;;;24.20;86.80;;;;;;4935685;28;20383;-89
2021/08/11 14:43:32;;;;;;;;;;;24.40;86.10;;;;;;4934451;29;19915;-88
2021/08/11 14:45:58;;;;;;;;;;;24.70;86.40;;;;;;4934180;29;19911;-89
2021/08/11 14:48:23;;;;;;;;;;;25.10;85.40;;;;;;4935519;28;19953;-88
2021/08/11 14:50:49;;;;;;;;;;;25.50;83.90;;;;;;4934054;29;20099;-88
2021/08/11 14:53:14;;;;;;;;;;;25.80;83.50;;;;;;4933701;29;19965;-88
2021/08/11 14:55:40;;;;;;;;;;;25.90;80.50;;;;;;4933908;29;19966;-89
2021/08/11 14:58:06;;;;;;;;;;;25.70;81.10;;;;;;4934652;28;20013;-89
2021/08/11 15:00:32;;;;;;;;;;;25.50;81.50;;;;;;4935481;29;20290;-88
2021/08/11 15:02:58;;;;;;;;;;;25.20;81.70;;;;;;4934089;29;19965;-88
2021/08/11 15:05:23;;;;;;;;;;;24.90;82.70;;;;;;4934963;28;19961;-89
2021/08/11 15:07:48;;;;;;;;;;;24.50;83.70;;;;;;4934030;29;19953;-91
2021/08/11 15:10:17;;;;;;;;;;;24.20;85.40;;;;;;4932480;28;19970;-90
2021/08/11 15:12:43;;;;;;;;;;;24.00;86.00;;;;;;4931232;29;19918;-90
2021/08/11 15:15:09;;;;;;;;;;;23.80;87.30;;;;;;4932788;29;19950;-89
2021/08/11 15:17:35;;;;;;;;;;;23.70;87.50;;;;;;4931633;28;20448;-89
2021/08/11 15:20:00;;;;;;;;;;;23.60;87.60;;;;;;4931401;29;19911;-89
2021/08/11 15:22:26;;;;;;;;;;;23.60;88.00;;;;;;4931432;29;19911;-89
2021/08/11 15:24:51;;;;;;;;;;;23.70;87.30;;;;;;4931210;28;19962;-89
2021/08/11 15:27:17;;;;;;;;;;;24.00;86.50;;;;;;4931437;28;19918;-89
2021/08/11 15:29:42;;;;;;;;;;;24.30;85.20;;;;;;4930820;28;19915;-89
2021/08/11 15:32:08;;;;;;;;;;;24.50;85.00;;;;;;4931145;29;19930;-89
2021/08/11 15:34:34;;;;;;;;;;;24.70;84.80;;;;;;4931095;29;20014;-89
2021/08/11 15:36:59;;;;;;;;;;;24.70;85.50;;;;;;4931333;29;20280;-89
2021/08/11 15:39:25;;;;;;;;;;;24.70;84.00;;;;;;4930373;29;19965;-89
2021/08/11 15:41:50;;;;;;;;;;;24.60;84.30;;;;;;4932073;28;19919;-89
2021/08/11 15:44:16;;;;;;;;;;;24.50;84.30;;;;;;4932328;28;19910;-89
2021/08/11 15:46:42;;;;;;;;;;;24.40;84.30;;;;;;4933545;28;20009;-89
2021/08/11 15:49:08;;;;;;;;;;;24.40;84.60;;;;;;4935021;28;20005;-89
2021/08/11 15:51:33;;;;;;;;;;;24.30;85.40;;;;;;4935441;29;19953;-89
2021/08/11 15:53:59;;;;;;;;;;;24.10;85.80;;;;;;4935397;28;19915;-89
2021/08/11 15:56:27;;;;;;;;;;;24.10;86.10;;;;;;4934505;29;19911;-89
2021/08/11 15:58:57;;;;;;;;;;;24.00;86.50;;;;;;4933875;28;20344;-89
2021/08/11 16:01:23;;;;;;;;;;;24.00;86.60;;;;;;4935471;28;19911;-89
2021/08/11 16:03:48;;;;;;;;;;;23.90;87.40;;;;;;4934259;29;19998;-89
2021/08/11 16:06:14;;;;;;;;;;;23.90;87.20;;;;;;4935585;28;20267;-89